Time;durP1;ratioP1;P1;durP2;ratioP2;P2;SDS_P1;SDS_P2;PMS_P1;PMS_P2;Temp;Humidity;BMP_temperature;BMP_pressure;BME280_temperature;BME280_humidity;BME280_pressure;Samples;Min_cycle;Max_cycle;Signal;HPM_P1;HPM_P2
2022/03/31 00:04:18;;;;;;;2.77;1.77;;;;;;;17.30;50.50;94798.59;10391187;28;20268;-23
2022/03/31 00:09:18;;;;;;;2.17;1.20;;;;;;;17.22;50.36;94791.19;10383936;28;20300;-22
2022/03/31 00:14:18;;;;;;;2.37;1.60;;;;;;;17.29;50.51;94799.44;10386477;28;20033;-22
2022/03/31 00:19:19;;;;;;;1.87;1.30;;;;;;;17.20;50.69;94779.47;10384854;28;20058;-22
2022/03/31 00:24:19;;;;;;;2.00;1.45;;;;;;;17.17;50.75;94774.50;10386822;28;20049;-22
2022/03/31 00:29:20;;;;;;;2.17;1.60;;;;;;;17.27;50.48;94786.03;10388301;28;20041;-22
2022/03/31 00:34:20;;;;;;;1.50;1.30;;;;;;;17.26;50.37;94789.44;10382592;28;20061;-22
2022/03/31 00:39:31;;;;;;;1.48;1.27;;;;;;;17.28;50.86;94777.56;10391008;28;20302;-22
2022/03/31 00:44:32;;;;;;;6.10;1.90;;;;;;;17.39;57.79;94771.38;10382497;28;20108;-22
2022/03/31 00:49:34;;;;;;;2.20;1.70;;;;;;;17.49;59.07;94772.00;10383902;28;20036;-22
2022/03/31 00:54:36;;;;;;;3.85;1.60;;;;;;;17.48;55.58;94765.28;10384115;28;20052;-21
2022/03/31 00:59:37;;;;;;;4.45;2.78;;;;;;;17.37;51.73;94767.25;10381834;28;20425;-22
2022/03/31 01:04:39;;;;;;;1.85;1.30;;;;;;;17.32;51.30;94756.41;10389162;28;20033;-22
2022/03/31 01:09:40;;;;;;;1.25;1.10;;;;;;;17.30;50.67;94753.06;10388955;28;20032;-22
2022/03/31 01:14:40;;;;;;;1.58;1.30;;;;;;;17.29;50.81;94749.72;10382893;28;20080;-22
2022/03/31 01:19:40;;;;;;;3.53;1.50;;;;;;;17.29;50.30;94741.28;10382172;28;20038;-21
2022/03/31 01:24:41;;;;;;;2.40;1.50;;;;;;;17.29;50.63;94733.69;10387647;28;20029;-22
2022/03/31 01:29:41;;;;;;;2.22;1.02;;;;;;;17.27;50.78;94732.94;10383645;28;20025;-22
2022/03/31 01:34:41;;;;;;;2.87;1.27;;;;;;;17.28;50.58;94729.53;10381398;28;20076;-22
2022/03/31 01:39:42;;;;;;;2.70;1.27;;;;;;;17.27;50.36;94725.34;10378307;28;20040;-22
2022/03/31 01:44:42;;;;;;;1.45;1.30;;;;;;;17.28;50.39;94719.41;10383471;28;20128;-22
2022/03/31 01:49:43;;;;;;;5.23;1.80;;;;;;;17.37;57.44;94712.44;10387603;28;20495;-22
2022/03/31 01:54:44;;;;;;;2.83;1.80;;;;;;;17.38;58.71;94693.03;10379277;28;20318;-22
2022/03/31 01:59:44;;;;;;;3.40;1.83;;;;;;;17.46;56.74;94702.06;10376239;28;20041;-21
2022/03/31 02:04:45;;;;;;;1.97;1.37;;;;;;;17.35;51.63;94688.88;10385934;28;20276;-22
2022/03/31 02:09:45;;;;;;;1.95;1.15;;;;;;;17.33;51.03;94694.84;10386898;28;20734;-22
2022/03/31 02:14:45;;;;;;;2.60;1.93;;;;;;;17.29;50.84;94673.00;10378448;28;20467;-22
2022/03/31 02:19:46;;;;;;;2.53;1.23;;;;;;;17.27;50.81;94662.97;10387713;28;20288;-23
2022/03/31 02:24:48;;;;;;;1.60;1.30;;;;;;;17.26;50.69;94670.59;10383947;28;20048;-23
2022/03/31 02:29:48;;;;;;;3.13;1.30;;;;;;;17.19;50.49;94652.22;10382224;28;20672;-22
2022/03/31 02:34:48;;;;;;;1.70;1.30;;;;;;;17.25;50.65;94656.28;10384301;28;20058;-22
2022/03/31 02:39:49;;;;;;;1.40;1.30;;;;;;;17.26;50.05;94653.69;10375632;28;20033;-22
2022/03/31 02:44:49;;;;;;;6.10;1.20;;;;;;;17.25;50.63;94646.16;10379927;28;20045;-22
2022/03/31 02:49:50;;;;;;;1.27;1.13;;;;;;;17.23;50.58;94638.63;10383821;28;20037;-21
2022/03/31 03:00:10;;;;;;;2.50;1.58;;;;;;;17.41;57.67;94629.72;10380184;28;20831;-22
2022/03/31 03:05:10;;;;;;;2.35;1.42;;;;;;;17.45;56.55;94623.69;10378537;28;20230;-22
2022/03/31 03:10:11;;;;;;;2.23;1.20;;;;;;;17.34;51.94;94621.44;10384207;28;20091;-22
2022/03/31 03:15:11;;;;;;;1.90;1.10;;;;;;;17.29;50.87;94617.38;10381449;28;20115;-22
2022/03/31 03:20:15;;;;;;;2.08;1.45;;;;;;;17.21;50.98;94609.19;10374203;28;20030;-22
2022/03/31 03:25:18;;;;;;;2.35;1.08;;;;;;;17.26;50.58;94603.13;10381218;28;20030;-22
2022/03/31 03:30:19;;;;;;;1.73;0.95;;;;;;;17.25;50.47;94600.66;10376251;28;20036;-22
2022/03/31 03:35:19;;;;;;;1.00;0.90;;;;;;;17.25;50.63;94588.00;10373590;28;20103;-22
2022/03/31 03:40:20;;;;;;;1.40;0.90;;;;;;;17.24;50.35;94588.88;10385749;28;20447;-22
2022/03/31 03:45:20;;;;;;;1.20;0.90;;;;;;;17.25;50.40;94586.31;10375662;28;20367;-21
2022/03/31 03:50:21;;;;;;;2.50;1.50;;;;;;;17.24;50.59;94583.84;10382134;28;20042;-22
2022/03/31 03:55:21;;;;;;;2.65;1.48;;;;;;;17.16;50.46;94581.50;10375284;28;20531;-22
2022/03/31 04:00:22;;;;;;;2.53;1.70;;;;;;;17.23;55.35;94577.13;10382355;28;20034;-22
2022/03/31 04:05:22;;;;;;;5.20;1.73;;;;;;;17.40;57.38;94585.88;10374616;28;20141;-22
2022/03/31 04:10:23;;;;;;;5.13;1.50;;;;;;;17.43;55.06;94578.22;10382637;28;20089;-24
2022/03/31 04:15:23;;;;;;;2.33;1.20;;;;;;;17.39;51.21;94575.81;10380595;28;20084;-23
2022/03/31 04:20:24;;;;;;;2.40;1.27;;;;;;;17.37;51.09;94587.69;10386901;28;20541;-21
2022/03/31 04:25:24;;;;;;;1.92;1.33;;;;;;;17.37;50.10;94580.94;10389248;28;20294;-22
2022/03/31 04:30:26;;;;;;;1.42;1.08;;;;;;;17.35;50.31;94582.66;10391765;28;20029;-21
2022/03/31 04:35:29;;;;;;;3.30;0.90;;;;;;;17.37;50.08;94575.03;10391505;28;20021;-22
2022/03/31 04:40:29;;;;;;;2.35;1.15;;;;;;;17.36;50.48;94580.97;10388053;28;20469;-23
2022/03/31 04:45:30;;;;;;;3.13;1.30;;;;;;;17.37;50.07;94573.34;10386887;28;20116;-22
2022/03/31 04:50:30;;;;;;;2.07;1.20;;;;;;;17.37;50.10;94577.56;10385620;28;20064;-21
2022/03/31 04:55:31;;;;;;;4.07;2.08;;;;;;;17.29;52.68;94574.41;10384517;28;20034;-21
2022/03/31 05:00:32;;;;;;;8.57;2.33;;;;;;;16.60;51.96;94589.00;10380419;28;20038;-22
2022/03/31 05:05:32;;;;;;;3.97;2.33;;;;;;;16.94;51.28;94574.59;10384614;28;20288;-22
2022/03/31 05:10:33;;;;;;;9.32;2.90;;;;;;;17.17;53.30;94572.25;10382344;28;20041;-22
2022/03/31 05:15:33;;;;;;;9.30;3.37;;;;;;;17.13;52.08;94551.28;10385173;28;20029;-22
2022/03/31 05:20:34;;;;;;;2.37;1.30;;;;;;;17.24;50.83;94568.66;10386648;28;20740;-22
2022/03/31 05:25:34;;;;;;;2.92;1.75;;;;;;;17.27;50.20;94564.34;10382182;28;20284;-21
2022/03/31 05:30:35;;;;;;;27.60;3.97;;;;;;;17.28;52.06;94573.59;10388336;28;20036;-22
2022/03/31 05:35:35;;;;;;;17.83;2.97;;;;;;;17.06;51.83;94571.72;10379225;28;20308;-21
2022/03/31 05:40:36;;;;;;;17.35;3.05;;;;;;;16.97;51.52;94571.97;10377292;28;20490;-22
2022/03/31 05:45:36;;;;;;;9.90;1.90;;;;;;;17.13;50.64;94565.59;10376469;28;20504;-22
2022/03/31 05:50:37;;;;;;;5.43;1.95;;;;;;;17.16;50.24;94566.34;10387035;28;20069;-22
2022/03/31 05:55:37;;;;;;;4.68;1.65;;;;;;;17.22;50.46;94565.31;10380500;28;20485;-22
2022/03/31 06:00:38;;;;;;;3.20;1.30;;;;;;;17.25;50.26;94567.78;10378491;28;20064;-22
2022/03/31 06:05:38;;;;;;;3.08;1.73;;;;;;;17.25;50.09;94565.25;10385453;28;20320;-22
2022/03/31 06:10:38;;;;;;;4.63;1.55;;;;;;;17.25;50.13;94563.53;10380907;28;20517;-22
2022/03/31 06:15:39;;;;;;;9.33;3.93;;;;;;;17.31;54.27;94562.56;10378832;28;20037;-23
2022/03/31 06:20:39;;;;;;;5.55;3.60;;;;;;;17.36;54.37;94558.22;10379902;28;20309;-22
2022/03/31 06:25:42;;;;;;;4.90;2.20;;;;;;;17.33;51.61;94560.81;10382392;28;20029;-22
2022/03/31 06:30:42;;;;;;;2.92;1.83;;;;;;;17.30;50.19;94560.88;10379017;28;20387;-22
2022/03/31 06:35:43;;;;;;;3.70;1.70;;;;;;;17.24;50.57;94548.44;10384007;28;20022;-22
2022/03/31 06:41:06;;;;;;;2.63;2.00;;;;;;;17.27;50.34;94563.50;10379587;28;20053;-22
2022/03/31 06:46:05;;;;;;;2.47;1.55;;;;;;;17.27;50.20;94559.28;10377028;28;20033;-22
2022/03/31 06:51:08;;;;;;;4.18;1.60;;;;;;;17.25;50.38;94560.19;10381932;28;20456;-21
2022/03/31 06:56:10;;;;;;;3.38;1.38;;;;;;;17.25;50.41;94560.19;10378210;28;20393;-22
2022/03/31 07:01:12;;;;;;;3.33;1.70;;;;;;;17.23;50.32;94542.53;10379113;28;20029;-22
2022/03/31 07:06:12;;;;;;;2.78;1.60;;;;;;;17.24;50.51;94548.44;10382471;28;20120;-22
2022/03/31 07:11:13;;;;;;;2.15;1.45;;;;;;;17.23;50.41;94547.59;10378030;28;20091;-22
2022/03/31 07:16:16;;;;;;;3.15;1.58;;;;;;;17.23;50.47;94542.53;10380578;28;20033;-22
2022/03/31 07:21:16;;;;;;;5.97;3.35;;;;;;;17.31;54.07;94539.81;10381490;28;20502;-22
2022/03/31 07:26:17;;;;;;;6.60;3.13;;;;;;;17.36;54.04;94536.28;10374670;28;20038;-21
2022/03/31 07:31:17;;;;;;;5.83;2.80;;;;;;;17.33;51.66;94528.75;10377260;28;20038;-21
2022/03/31 07:36:18;;;;;;;3.22;1.70;;;;;;;17.29;50.75;94526.34;10381636;28;20038;-22
2022/03/31 07:41:18;;;;;;;2.38;1.58;;;;;;;17.26;50.57;94521.41;10377517;28;20489;-22
2022/03/31 07:46:19;;;;;;;3.57;1.70;;;;;;;17.26;50.64;94523.94;10376509;28;20040;-22
2022/03/31 07:51:19;;;;;;;1.77;1.20;;;;;;;17.24;50.55;94518.91;10382354;28;20298;-21
2022/03/31 07:56:20;;;;;;;4.07;1.60;;;;;;;17.24;50.50;94528.22;10384836;28;20057;-21
2022/03/31 08:01:20;;;;;;;2.00;1.00;;;;;;;17.23;50.55;94521.50;10383747;28;20037;-22
2022/03/31 08:06:21;;;;;;;1.90;1.60;;;;;;;17.23;50.18;94506.34;10389135;28;20026;-22
2022/03/31 08:11:23;;;;;;;2.53;1.35;;;;;;;17.23;50.42;94506.34;10389980;28;20048;-21
2022/03/31 08:16:25;;;;;;;3.25;1.67;;;;;;;17.24;50.41;94513.03;10383449;28;20037;-22
2022/03/31 08:21:25;;;;;;;3.72;1.45;;;;;;;17.23;50.39;94511.38;10386448;28;20037;-22
2022/03/31 08:26:25;;;;;;;6.33;3.97;;;;;;;17.33;53.77;94515.28;10379612;28;20040;-22
2022/03/31 08:31:27;;;;;;;7.80;3.60;;;;;;;17.38;53.70;94511.78;10382776;28;20303;-22
2022/03/31 08:36:28;;;;;;;5.38;3.33;;;;;;;17.37;53.06;94515.19;10390896;28;20038;-23
2022/03/31 08:41:28;;;;;;;2.13;1.58;;;;;;;17.28;50.81;94509.53;10386812;28;20642;-22
2022/03/31 08:46:34;;;;;;;2.75;1.67;;;;;;;17.26;50.54;94519.69;10386101;28;20378;-22
2022/03/31 08:51:34;;;;;;;3.00;2.05;;;;;;;17.25;50.39;94509.63;10386534;28;20037;-22
2022/03/31 08:56:37;;;;;;;3.30;1.65;;;;;;;17.24;50.25;94520.63;10387591;28;20052;-22
2022/03/31 09:01:39;;;;;;;2.58;1.92;;;;;;;17.25;50.33;94514.69;10380031;28;20030;-22
2022/03/31 09:06:39;;;;;;;2.28;1.42;;;;;;;17.26;50.27;94516.34;10390036;28;20433;-22
2022/03/31 09:11:45;;;;;;;1.70;1.37;;;;;;;17.26;50.09;94522.22;10385339;28;20077;-22
2022/03/31 09:16:45;;;;;;;1.98;1.63;;;;;;;17.27;50.21;94523.06;10387936;28;20034;-22
2022/03/31 09:21:51;;;;;;;3.75;1.60;;;;;;;17.25;50.09;94515.50;10385867;28;20042;-22
2022/03/31 09:26:53;;;;;;;3.15;1.92;;;;;;;17.26;50.31;94521.41;10382919;28;20079;-22
2022/03/31 09:32:09;;;;;;;8.25;5.10;;;;;;;17.34;53.76;94524.53;10380245;28;20515;-22
2022/03/31 09:37:10;;;;;;;8.55;5.32;;;;;;;17.39;53.59;94517.63;10385419;28;20041;-22
2022/03/31 09:42:13;;;;;;;10.88;6.38;;;;;;;17.36;52.11;94517.75;10383222;28;20084;-22
2022/03/31 09:47:13;;;;;;;2.58;2.13;;;;;;;17.31;50.42;94514.50;10380317;28;20088;-22
2022/03/31 09:52:13;;;;;;;3.77;2.57;;;;;;;17.27;50.38;94518.84;10386760;28;20486;-22
2022/03/31 09:57:14;;;;;;;3.92;2.17;;;;;;;17.27;50.23;94518.84;10378789;28;20493;-22
2022/03/31 10:02:15;;;;;;;2.78;2.03;;;;;;;17.26;50.16;94513.81;10382231;28;20039;-22
2022/03/31 10:07:16;;;;;;;2.95;1.90;;;;;;;17.26;50.37;94513.81;10387160;28;20033;-22
2022/03/31 10:12:23;;;;;;;2.95;1.85;;;;;;;17.24;50.41;94507.97;10378931;28;20425;-22
2022/03/31 10:17:28;;;;;;;2.75;1.95;;;;;;;17.26;50.25;94507.03;10378390;28;20041;-22
2022/03/31 10:27:50;;;;;;;5.25;2.45;;;;;;;17.19;50.33;94495.47;10377491;28;20417;-22
2022/03/31 10:32:54;;;;;;;2.38;1.88;;;;;;;17.29;50.25;94501.91;10380290;28;20037;-22
2022/03/31 10:37:56;;;;;;;8.07;4.50;;;;;;;17.35;52.78;94495.81;10380639;28;20046;-22
2022/03/31 10:42:56;;;;;;;16.45;4.47;;;;;;;17.44;53.35;94496.41;10382128;28;20467;-22
2022/03/31 10:47:57;;;;;;;3.63;2.00;;;;;;;17.40;50.83;94489.78;10378931;28;20116;-22
2022/03/31 10:53:01;;;;;;;4.17;1.83;;;;;;;17.37;50.44;94482.31;10382584;28;20068;-22
2022/03/31 10:58:03;;;;;;;5.85;1.70;;;;;;;17.34;50.24;94484.88;10380629;28;20140;-22
2022/03/31 11:03:03;;;;;;;2.50;2.13;;;;;;;17.34;50.34;94479.00;10384090;28;20065;-21
2022/03/31 11:08:05;;;;;;;3.40;1.50;;;;;;;17.33;50.40;94475.63;10374755;28;20113;-22
2022/03/31 11:13:07;;;;;;;2.63;2.05;;;;;;;17.33;50.48;94469.78;10377344;28;20026;-22
2022/03/31 11:18:08;;;;;;;3.35;1.42;;;;;;;17.32;50.44;94473.19;10377368;28;20481;-22
2022/03/31 11:23:08;;;;;;;2.87;1.80;;;;;;;17.28;50.80;94464.00;10376692;28;20068;-22
2022/03/31 11:28:12;;;;;;;4.20;2.57;;;;;;;17.29;50.49;94461.44;10382766;28;20033;-22
2022/03/31 11:33:14;;;;;;;5.03;1.75;;;;;;;17.28;50.50;94453.91;10396794;28;20287;-22
2022/03/31 11:38:17;;;;;;;6.03;1.55;;;;;;;17.29;50.53;94450.50;10393961;28;20075;-22
2022/03/31 11:43:20;;;;;;;8.05;2.47;;;;;;;17.36;53.51;94450.31;10390625;28;20445;-22
2022/03/31 11:48:23;;;;;;;7.15;2.75;;;;;;;17.42;53.69;94446.75;10388474;28;20034;-22
2022/03/31 11:53:43;;;;;;;10.65;3.67;;;;;;;17.42;53.53;94444.22;10384065;28;20050;-22
2022/03/31 11:58:46;;;;;;;2.40;1.30;;;;;;;17.30;50.86;94436.97;10388972;28;20044;-22
2022/03/31 12:03:47;;;;;;;7.10;1.30;;;;;;;17.29;50.64;94442.91;10377732;28;20072;-22
2022/03/31 12:08:47;;;;;;;6.00;1.70;;;;;;;17.22;50.48;94433.84;10393644;28;20568;-22
2022/03/31 12:14:01;;;;;;;10.15;2.20;;;;;;;17.28;52.90;94431.16;10380703;28;20038;-21
2022/03/31 12:19:01;;;;;;;12.95;2.30;;;;;;;17.15;51.18;94432.41;10382844;28;20026;-22
2022/03/31 12:24:02;;;;;;;5.72;2.33;;;;;;;17.20;50.59;94430.56;10383554;28;20030;-22
2022/03/31 12:29:13;;;;;;;6.40;1.80;;;;;;;17.21;50.66;94417.03;10383576;28;20030;-21
2022/03/31 12:34:14;;;;;;;5.22;1.75;;;;;;;17.21;50.54;94417.03;10380709;28;20049;-22
2022/03/31 12:39:14;;;;;;;2.58;1.00;;;;;;;17.22;50.48;94414.47;10382338;28;20441;-22
2022/03/31 12:44:19;;;;;;;2.10;1.40;;;;;;;17.20;50.25;94421.28;10383578;28;20044;-22
2022/03/31 12:49:24;;;;;;;11.30;2.50;;;;;;;17.35;53.73;94417.44;10385410;28;20391;-21
2022/03/31 12:54:35;;;;;;;10.57;2.60;;;;;;;17.36;53.30;94398.88;10380976;28;20609;-22
2022/03/31 12:59:36;;;;;;;4.35;2.35;;;;;;;17.42;52.01;94411.34;10381813;28;20037;-22
2022/03/31 13:04:41;;;;;;;9.43;3.08;;;;;;;17.33;50.73;94409.06;10380431;28;20026;-22
2022/03/31 13:09:44;;;;;;;7.43;2.15;;;;;;;17.28;50.44;94398.28;10383627;28;20033;-22
2022/03/31 13:14:46;;;;;;;5.35;1.50;;;;;;;17.24;51.19;94404.31;10381238;28;20029;-22
2022/03/31 13:19:47;;;;;;;3.83;1.80;;;;;;;17.27;50.96;94396.63;10380903;28;20460;-22
2022/03/31 13:24:48;;;;;;;3.35;1.33;;;;;;;17.28;50.44;94394.06;10382512;28;20029;-22
2022/03/31 13:29:50;;;;;;;5.65;2.70;;;;;;;17.28;50.33;94398.28;10377498;28;20436;-22
2022/03/31 13:34:51;;;;;;;8.98;2.97;;;;;;;17.28;51.62;94394.06;10380786;28;20042;-22
2022/03/31 13:39:53;;;;;;;8.65;2.42;;;;;;;17.27;50.62;94401.69;10387572;28;20037;-22
2022/03/31 13:44:53;;;;;;;8.02;2.80;;;;;;;17.22;50.82;94379.06;10384059;28;20485;-21
2022/03/31 13:49:54;;;;;;;8.10;2.28;;;;;;;17.27;50.48;94377.25;10384848;28;20041;-22
2022/03/31 13:54:54;;;;;;;10.30;2.50;;;;;;;17.39;53.88;94381.06;10382148;28;20021;-22
2022/03/31 14:05:15;;;;;;;7.28;3.20;;;;;;;17.43;52.71;94372.53;10387777;28;20037;-22
2022/03/31 14:10:16;;;;;;;4.47;1.90;;;;;;;17.38;50.99;94379.41;10384670;28;20401;-22
2022/03/31 14:15:17;;;;;;;6.60;1.92;;;;;;;17.34;50.83;94375.31;10382362;28;20821;-22
2022/03/31 14:20:17;;;;;;;3.63;1.63;;;;;;;17.34;50.65;94373.59;10388267;28;20041;-22
2022/03/31 14:25:19;;;;;;;4.57;1.83;;;;;;;17.35;50.35;94360.09;10387726;28;20345;-22
2022/03/31 14:30:20;;;;;;;6.00;1.67;;;;;;;17.36;50.69;94371.06;10383260;28;20379;-21
2022/03/31 14:35:21;;;;;;;5.53;1.70;;;;;;;17.35;50.27;94365.16;10380799;28;20875;-22
2022/03/31 14:40:21;;;;;;;2.55;1.48;;;;;;;17.34;50.51;94367.75;10380999;28;20516;-22
2022/03/31 14:45:23;;;;;;;3.27;1.33;;;;;;;17.34;50.33;94362.69;10378016;28;20420;-22
2022/03/31 14:50:23;;;;;;;6.10;1.48;;;;;;;17.30;50.39;94367.00;10380729;28;20032;-22
2022/03/31 14:55:26;;;;;;;3.35;1.67;;;;;;;17.35;50.83;94369.38;10378465;28;20028;-22
2022/03/31 15:00:26;;;;;;;15.45;3.28;;;;;;;17.41;55.60;94375.09;10380922;28;20044;-21
2022/03/31 15:05:27;;;;;;;19.37;3.87;;;;;;;17.46;57.75;94372.41;10386748;28;20371;-22
2022/03/31 15:15:46;;;;;;;6.25;2.03;;;;;;;17.38;51.58;94385.31;10374817;28;20044;-21
2022/03/31 15:20:47;;;;;;;9.13;1.67;;;;;;;17.38;51.25;94395.44;10374276;28;20046;-22
2022/03/31 15:25:48;;;;;;;4.07;1.77;;;;;;;17.35;51.22;94423.34;10375934;28;20524;-23
2022/03/31 15:30:49;;;;;;;8.65;2.10;;;;;;;17.36;50.77;94444.41;10381681;28;20064;-22
2022/03/31 15:35:52;;;;;;;9.23;2.73;;;;;;;17.28;54.25;94448.84;10378048;28;20041;-23
2022/03/31 15:40:52;;;;;;;10.38;2.05;;;;;;;17.33;51.53;94462.19;10377586;28;20092;-22
2022/03/31 15:45:53;;;;;;;5.77;3.03;;;;;;;17.17;52.88;94466.06;10369260;28;20033;-22
2022/03/31 15:50:54;;;;;;;6.18;1.77;;;;;;;17.27;51.15;94480.06;10377413;28;20029;-22
2022/03/31 15:55:54;;;;;;;5.20;1.55;;;;;;;17.30;50.92;94480.81;10370496;28;20109;-24
2022/03/31 16:00:54;;;;;;;6.63;2.30;;;;;;;17.05;55.40;94477.38;10370499;28;20041;-22
2022/03/31 16:05:55;;;;;;;11.93;2.63;;;;;;;17.25;59.37;94484.34;10374437;28;20089;-22
2022/03/31 16:10:55;;;;;;;7.43;2.88;;;;;;;17.34;60.49;94486.59;10383601;28;20029;-22
2022/03/31 16:15:57;;;;;;;10.07;3.03;;;;;;;17.32;58.48;94495.94;10387206;28;20037;-23
2022/03/31 16:20:59;;;;;;;6.25;2.17;;;;;;;17.25;55.62;94494.47;10390528;28;20038;-22
2022/03/31 16:25:59;;;;;;;6.43;2.55;;;;;;;17.26;61.89;94512.09;10387375;28;20614;-23
2022/03/31 16:31:01;;;;;;;4.70;2.33;;;;;;;17.27;62.07;94512.94;10386252;28;20049;-22
2022/03/31 16:36:04;;;;;;;9.18;2.90;;;;;;;17.27;60.70;94518.00;10384823;28;20040;-23
2022/03/31 16:41:07;;;;;;;7.75;2.75;;;;;;;17.22;60.12;94514.75;10382407;28;20094;-21
2022/03/31 16:46:09;;;;;;;5.25;1.95;;;;;;;17.29;55.27;94526.34;10382273;28;20045;-23
2022/03/31 16:51:10;;;;;;;9.65;2.45;;;;;;;17.29;54.84;94523.81;10378895;28;20062;-22
2022/03/31 16:56:10;;;;;;;6.18;2.10;;;;;;;17.30;58.66;94528.84;10384142;28;20038;-22
2022/03/31 17:01:11;;;;;;;10.98;3.10;;;;;;;17.31;56.28;94539.81;10376516;28;20456;-23
2022/03/31 17:06:13;;;;;;;5.22;1.70;;;;;;;17.34;57.80;94544.75;10386463;28;20022;-22
2022/03/31 17:11:13;;;;;;;10.60;2.63;;;;;;;17.42;58.88;94545.38;10388861;28;20084;-24
2022/03/31 17:16:13;;;;;;;14.48;2.80;;;;;;;17.46;60.60;94539.34;10388626;28;20086;-23
2022/03/31 17:21:15;;;;;;;5.63;1.90;;;;;;;17.46;55.13;94549.47;10383584;28;20037;-23
2022/03/31 17:26:17;;;;;;;5.65;1.77;;;;;;;17.46;53.79;94550.31;10378723;28;20041;-22
2022/03/31 17:31:18;;;;;;;3.72;1.80;;;;;;;17.45;55.28;94556.25;10384652;28;20117;-23
2022/03/31 17:36:19;;;;;;;5.32;1.85;;;;;;;17.46;53.13;94560.41;10383052;28;20397;-24
2022/03/31 17:41:19;;;;;;;4.35;1.60;;;;;;;17.46;52.37;94564.63;10380202;28;20030;-22
2022/03/31 17:46:20;;;;;;;4.78;1.80;;;;;;;17.44;52.15;94574.81;10378894;28;20026;-22
2022/03/31 17:51:22;;;;;;;3.92;2.40;;;;;;;17.45;53.20;94578.16;10386169;28;20030;-22
2022/03/31 17:56:22;;;;;;;6.55;2.65;;;;;;;17.44;53.62;94586.63;10382044;28;20028;-23
2022/03/31 18:01:22;;;;;;;6.05;1.60;;;;;;;17.45;52.29;94589.13;10390975;28;20044;-23
2022/03/31 18:06:23;;;;;;;4.07;1.60;;;;;;;17.43;52.07;94595.09;10388381;28;20405;-22
2022/03/31 18:11:24;;;;;;;15.15;6.20;;;;;;;17.44;59.30;94596.75;10383177;28;20557;-22
2022/03/31 18:16:25;;;;;;;10.90;4.60;;;;;;;17.52;61.84;94603.25;10386037;28;20037;-22
2022/03/31 18:21:26;;;;;;;9.30;4.93;;;;;;;17.54;62.16;94613.31;10380914;28;20045;-23
2022/03/31 18:26:27;;;;;;;6.22;2.40;;;;;;;17.49;55.17;94617.69;10380080;28;20033;-22
2022/03/31 18:36:46;;;;;;;5.93;3.47;;;;;;;17.47;54.13;94627.00;10379710;28;20048;-22
2022/03/31 18:41:47;;;;;;;7.38;4.32;;;;;;;17.44;52.96;94638.06;10379359;28;20502;-23
2022/03/31 18:46:47;;;;;;;2.90;2.10;;;;;;;17.45;52.45;94649.81;10381451;28;20045;-22
2022/03/31 18:51:47;;;;;;;5.18;3.28;;;;;;;17.44;54.83;94644.81;10388472;28;20111;-22
2022/03/31 18:56:48;;;;;;;4.30;2.37;;;;;;;17.44;52.36;94663.34;10377923;28;20041;-22
2022/03/31 19:01:48;;;;;;;8.20;3.20;;;;;;;17.45;53.73;94669.22;10377123;28;20025;-22
2022/03/31 19:07:00;;;;;;;3.03;1.58;;;;;;;17.46;51.68;94673.41;10378969;28;20288;-22
2022/03/31 19:12:04;;;;;;;3.05;2.13;;;;;;;17.44;52.87;94668.41;10381591;28;20033;-22
2022/03/31 19:17:05;;;;;;;9.57;3.45;;;;;;;17.49;59.83;94685.97;10377572;28;20064;-22
2022/03/31 19:22:06;;;;;;;9.73;3.67;;;;;;;17.51;61.19;94689.28;10382541;28;20040;-22
2022/03/31 19:27:06;;;;;;;3.47;2.43;;;;;;;17.44;55.67;94681.06;10376247;28;20037;-22
2022/03/31 19:32:07;;;;;;;5.40;2.23;;;;;;;17.49;53.36;94691.03;10379063;28;20497;-23
2022/03/31 19:37:08;;;;;;;2.25;1.55;;;;;;;17.48;52.00;94684.31;10387173;28;20037;-22
2022/03/31 19:42:08;;;;;;;1.27;1.17;;;;;;;17.46;51.79;94686.03;10376483;28;20053;-23
2022/03/31 19:47:09;;;;;;;4.85;1.70;;;;;;;17.46;51.52;94691.09;10381254;28;20048;-24
2022/03/31 19:52:10;;;;;;;3.75;1.50;;;;;;;17.46;51.33;94701.22;10383418;28;20053;-22
2022/03/31 19:57:10;;;;;;;2.35;1.55;;;;;;;17.45;51.50;94709.69;10395435;28;20501;-22
2022/03/31 20:02:11;;;;;;;7.60;1.63;;;;;;;17.44;50.95;94708.03;10388351;28;20034;-23
2022/03/31 20:07:11;;;;;;;3.17;1.40;;;;;;;17.44;51.17;94713.09;10387306;28;20025;-22
2022/03/31 20:12:12;;;;;;;2.07;1.20;;;;;;;17.44;51.33;94708.03;10385292;28;20064;-23
2022/03/31 20:17:12;;;;;;;2.33;1.45;;;;;;;17.43;51.27;94697.09;10388840;28;20287;-22
2022/03/31 20:22:12;;;;;;;3.55;2.58;;;;;;;17.49;59.27;94696.09;10379236;28;20030;-23
2022/03/31 20:27:13;;;;;;;7.28;2.33;;;;;;;17.49;60.07;94691.03;10381921;28;20034;-22
2022/03/31 20:32:13;;;;;;;3.38;1.83;;;;;;;17.50;54.54;94692.69;10388462;28;20022;-22
2022/03/31 20:37:17;;;;;;;3.70;2.50;;;;;;;17.40;56.51;94701.41;10384973;28;20034;-22
2022/03/31 20:42:18;;;;;;;2.47;1.23;;;;;;;17.44;52.06;94701.28;10380177;28;20095;-21
2022/03/31 20:47:18;;;;;;;2.93;1.33;;;;;;;17.47;52.28;94700.34;10379400;28;20041;-23
2022/03/31 20:52:19;;;;;;;3.47;1.58;;;;;;;17.49;51.77;94696.91;10376952;28;20288;-22
2022/03/31 20:57:20;;;;;;;4.75;1.98;;;;;;;17.46;53.73;94699.53;10385030;28;20044;-22
2022/03/31 21:02:20;;;;;;;2.13;1.20;;;;;;;17.46;51.47;94707.13;10384334;28;20033;-22
2022/03/31 21:07:20;;;;;;;2.80;1.48;;;;;;;17.44;51.45;94702.97;10388362;28;20037;-22
2022/03/31 21:12:21;;;;;;;2.00;1.20;;;;;;;17.44;51.43;94702.97;10383833;28;20034;-22
2022/03/31 21:17:21;;;;;;;1.70;1.10;;;;;;;17.38;51.16;94698.06;10399215;28;20076;-22
2022/03/31 21:22:22;;;;;;;3.65;1.20;;;;;;;17.45;51.37;94704.63;10396078;28;20048;-22
2022/03/31 21:27:22;;;;;;;5.27;1.83;;;;;;;17.48;60.79;94699.50;10393180;28;20122;-23
2022/03/31 21:32:23;;;;;;;4.53;2.10;;;;;;;17.49;61.26;94696.91;10390903;28;20030;-22
2022/03/31 21:37:23;;;;;;;2.90;1.60;;;;;;;17.38;54.46;94678.69;10393234;28;20033;-23
2022/03/31 21:42:24;;;;;;;4.50;1.37;;;;;;;17.45;52.52;94684.41;10388412;28;20370;-24
2022/03/31 21:47:26;;;;;;;3.03;1.35;;;;;;;17.43;51.66;94692.06;10390338;28;20026;-22
2022/03/31 21:52:27;;;;;;;4.03;1.45;;;;;;;17.43;52.21;94692.06;10397359;28;20036;-23
2022/03/31 21:57:27;;;;;;;1.48;1.20;;;;;;;17.42;51.80;94694.59;10395794;28;20033;-23
2022/03/31 22:02:27;;;;;;;2.15;1.27;;;;;;;17.42;51.90;94694.59;10385472;28;20037;-24
2022/03/31 22:07:28;;;;;;;2.80;2.13;;;;;;;17.40;51.77;94691.31;10397049;28;20034;-22
2022/03/31 22:12:28;;;;;;;2.07;0.90;;;;;;;17.39;51.46;94689.63;10387538;28;20034;-22
2022/03/31 22:17:30;;;;;;;3.50;1.73;;;;;;;17.39;51.70;94694.69;10389649;28;20387;-23
2022/03/31 22:22:32;;;;;;;2.97;1.80;;;;;;;17.39;51.46;94697.19;10393394;28;20292;-22
2022/03/31 22:27:33;;;;;;;2.42;1.17;;;;;;;17.39;51.37;94695.50;10384076;28;20029;-22
2022/03/31 22:32:33;;;;;;;3.43;1.87;;;;;;;17.42;60.74;94704.72;10387525;28;20033;-22
2022/03/31 22:37:34;;;;;;;3.85;2.10;;;;;;;17.47;60.69;94707.94;10394140;28;20040;-23
2022/03/31 22:42:35;;;;;;;2.90;1.30;;;;;;;17.42;55.09;94704.72;10392619;28;20029;-22
2022/03/31 22:47:36;;;;;;;4.55;1.25;;;;;;;17.41;52.83;94708.13;10382134;28;20029;-23
2022/03/31 22:52:36;;;;;;;2.40;1.45;;;;;;;17.39;52.10;94710.69;10387178;28;20508;-23
2022/03/31 22:57:37;;;;;;;4.17;1.47;;;;;;;17.40;52.03;94709.00;10390603;28;20048;-22
2022/03/31 23:02:37;;;;;;;1.73;1.13;;;;;;;17.38;51.81;94703.97;10380325;28;20288;-23
2022/03/31 23:07:38;;;;;;;3.00;1.60;;;;;;;17.38;51.41;94698.06;10380826;28;20293;-22
2022/03/31 23:12:39;;;;;;;3.90;1.30;;;;;;;17.36;51.79;94704.88;10388423;28;20037;-22
2022/03/31 23:17:39;;;;;;;1.35;1.08;;;;;;;17.37;51.96;94701.47;10380556;28;20552;-22
2022/03/31 23:22:40;;;;;;;1.50;1.30;;;;;;;17.28;51.92;94689.06;10383476;28;20113;-22
2022/03/31 23:27:40;;;;;;;2.70;1.10;;;;;;;17.36;51.57;94694.78;10388203;28;20037;-23
2022/03/31 23:32:41;;;;;;;1.92;1.00;;;;;;;17.33;51.94;94692.31;10383754;28;20305;-24
2022/03/31 23:37:41;;;;;;;3.70;2.17;;;;;;;17.37;59.66;94696.44;10387870;28;20116;-24
2022/03/31 23:42:42;;;;;;;2.88;1.65;;;;;;;17.34;60.00;94688.91;10343662;28;1039584;-22
2022/03/31 23:47:43;;;;;;;2.65;1.42;;;;;;;17.39;55.70;94687.09;10386225;28;20045;-23